createdAt,value
2023-05-04T00:00:28.834Z,0.00
2023-05-04T00:01:28.976Z,0.00
2023-05-04T00:02:29.323Z,0.00
2023-05-04T00:03:29.457Z,0.00
2023-05-04T00:04:29.438Z,0.00
2023-05-04T00:05:29.518Z,0.00
2023-05-04T00:06:29.626Z,0.00
2023-05-04T00:07:29.757Z,0.00
2023-05-04T00:08:29.910Z,0.00
2023-05-04T00:09:30.036Z,0.00
2023-05-04T00:10:30.165Z,0.00
2023-05-04T00:11:30.311Z,0.00
2023-05-04T00:12:30.456Z,0.00
2023-05-04T00:13:30.591Z,0.00
2023-05-04T00:14:30.668Z,0.00
2023-05-04T00:15:30.825Z,0.00
2023-05-04T00:16:30.996Z,0.00
2023-05-04T00:17:31.056Z,0.00
2023-05-04T00:18:31.107Z,0.00
2023-05-04T00:19:31.249Z,0.00
2023-05-04T00:20:31.396Z,0.00
2023-05-04T00:21:31.532Z,0.00
2023-05-04T00:22:31.648Z,0.00
2023-05-04T00:23:31.920Z,0.00
2023-05-04T00:24:31.905Z,0.00
2023-05-04T00:25:32.011Z,0.00
2023-05-04T00:26:32.154Z,0.00
2023-05-04T00:27:32.303Z,0.00
2023-05-04T00:28:32.469Z,0.00
2023-05-04T00:29:32.589Z,0.00
2023-05-04T00:30:32.731Z,0.00
2023-05-04T00:31:32.882Z,0.00
2023-05-04T00:32:32.992Z,0.00
2023-05-04T00:33:33.187Z,0.00
2023-05-04T00:34:33.189Z,0.00
2023-05-04T00:35:33.404Z,0.00
2023-05-04T00:36:33.451Z,0.00
2023-05-04T00:37:33.651Z,0.00
2023-05-04T00:38:33.755Z,0.00
2023-05-04T00:39:33.838Z,0.00
2023-05-04T00:40:33.985Z,0.00
2023-05-04T00:41:34.117Z,0.00
2023-05-04T00:42:34.298Z,0.00
2023-05-04T00:43:34.333Z,0.00
2023-05-04T00:44:34.552Z,0.00
2023-05-04T00:45:34.596Z,0.00
2023-05-04T00:46:34.826Z,0.00
2023-05-04T00:47:34.960Z,0.00
2023-05-04T00:48:35.027Z,0.00
2023-05-04T00:49:35.148Z,0.00
2023-05-04T00:50:35.256Z,0.00
2023-05-04T00:51:35.388Z,0.00
2023-05-04T00:52:35.511Z,0.00
2023-05-04T00:53:35.770Z,0.00
2023-05-04T00:54:35.751Z,0.00
2023-05-04T00:55:35.828Z,0.00
2023-05-04T00:56:36.045Z,0.00
2023-05-04T00:57:36.178Z,0.00
2023-05-04T00:58:36.299Z,0.00
2023-05-04T00:59:36.386Z,0.00
2023-05-04T01:00:36.475Z,0.00
2023-05-04T01:01:36.694Z,0.00
2023-05-04T01:02:36.781Z,0.00
2023-05-04T01:03:36.948Z,0.00
2023-05-04T01:04:37.033Z,0.00
2023-05-04T01:05:37.152Z,0.00
2023-05-04T01:06:37.343Z,0.00
2023-05-04T01:07:37.419Z,0.00
2023-05-04T01:08:37.557Z,0.00
2023-05-04T01:09:37.662Z,0.00
2023-05-04T01:10:37.807Z,0.00
2023-05-04T01:11:38.494Z,0.00
2023-05-04T01:12:38.348Z,0.00
2023-05-04T01:13:38.364Z,0.00
2023-05-04T01:14:38.347Z,0.00
2023-05-04T01:15:38.452Z,0.00
2023-05-04T01:16:38.612Z,0.00
2023-05-04T01:17:38.815Z,0.00
2023-05-04T01:18:38.893Z,0.00
2023-05-04T01:19:38.965Z,0.00
2023-05-04T01:20:39.099Z,0.00
2023-05-04T01:21:39.246Z,0.00
2023-05-04T01:22:39.370Z,0.00
2023-05-04T01:23:39.572Z,0.00
2023-05-04T01:24:39.693Z,0.00
2023-05-04T01:25:39.800Z,0.00
2023-05-04T01:26:39.940Z,0.00
2023-05-04T01:27:40.078Z,0.00
2023-05-04T01:28:40.164Z,0.00
2023-05-04T01:29:40.295Z,0.00
2023-05-04T01:30:40.500Z,0.00
2023-05-04T01:31:40.659Z,0.00
2023-05-04T01:32:40.726Z,0.00
2023-05-04T01:33:40.981Z,0.00
2023-05-04T01:34:40.996Z,0.00
2023-05-04T01:35:41.098Z,0.00
2023-05-04T01:36:41.185Z,0.00
2023-05-04T01:37:41.338Z,0.00
2023-05-04T01:38:41.517Z,0.00
2023-05-04T01:39:41.587Z,0.00
2023-05-04T01:40:41.732Z,0.00
2023-05-04T01:41:41.873Z,0.00
2023-05-04T01:42:41.982Z,0.00
2023-05-04T01:43:42.153Z,0.00
2023-05-04T01:44:42.212Z,0.00
2023-05-04T01:45:42.376Z,0.00
2023-05-04T01:46:42.523Z,0.00
2023-05-04T01:47:42.669Z,0.00
2023-05-04T01:48:42.808Z,0.00
2023-05-04T01:49:42.904Z,0.00
2023-05-04T01:50:43.028Z,0.00
2023-05-04T01:51:43.210Z,0.00
2023-05-04T01:52:43.320Z,0.00
2023-05-04T01:53:43.555Z,0.00
2023-05-04T01:54:43.565Z,0.00
2023-05-04T01:55:43.663Z,0.00
2023-05-04T01:56:43.806Z,0.00
2023-05-04T01:57:43.950Z,0.00
2023-05-04T01:58:44.084Z,0.00
2023-05-04T01:59:44.181Z,0.00
2023-05-04T02:00:44.316Z,0.00
2023-05-04T02:01:44.495Z,0.00
2023-05-04T02:02:44.624Z,0.00
2023-05-04T02:03:44.877Z,0.00
2023-05-04T02:04:44.867Z,0.00
2023-05-04T02:05:44.969Z,0.00
2023-05-04T02:06:45.056Z,0.00
2023-05-04T02:07:45.199Z,0.00
2023-05-04T02:08:45.370Z,0.00
2023-05-04T02:09:45.477Z,0.00
2023-05-04T02:10:45.581Z,0.00
2023-05-04T02:11:45.744Z,0.00
2023-05-04T02:12:45.854Z,0.00
2023-05-04T02:13:46.015Z,0.00
2023-05-04T02:14:46.166Z,0.00
2023-05-04T02:15:46.290Z,0.00
2023-05-04T02:16:46.361Z,0.00
2023-05-04T02:17:46.611Z,0.00
2023-05-04T02:18:46.676Z,0.00
2023-05-04T02:19:46.784Z,0.00
2023-05-04T02:20:46.855Z,0.00
2023-05-04T02:21:46.972Z,0.00
2023-05-04T02:22:47.143Z,0.00
2023-05-04T02:23:47.237Z,0.00
2023-05-04T02:24:47.401Z,0.00
2023-05-04T02:25:47.654Z,0.00
2023-05-04T02:26:47.680Z,0.00
2023-05-04T02:27:47.753Z,0.00
2023-05-04T02:28:47.889Z,0.00
2023-05-04T02:29:48.053Z,0.00
2023-05-04T02:30:48.169Z,0.00
2023-05-04T02:31:48.389Z,0.00
2023-05-04T02:32:48.532Z,0.00
2023-05-04T02:33:48.650Z,0.00
2023-05-04T02:34:48.773Z,0.00
2023-05-04T02:35:48.854Z,0.00
2023-05-04T02:36:48.988Z,0.00
2023-05-04T02:37:49.118Z,0.00
2023-05-04T02:38:49.239Z,0.00
2023-05-04T02:39:49.381Z,0.00
2023-05-04T02:40:49.468Z,0.00
2023-05-04T02:41:49.625Z,0.00
2023-05-04T02:42:49.752Z,0.00
2023-05-04T02:43:49.863Z,0.00
2023-05-04T02:44:50.110Z,0.00
2023-05-04T02:45:50.141Z,0.00
2023-05-04T02:46:50.237Z,0.00
2023-05-04T02:47:50.431Z,0.00
2023-05-04T02:48:50.504Z,0.00
2023-05-04T02:49:50.700Z,0.00
2023-05-04T02:50:50.754Z,0.00
2023-05-04T02:51:50.894Z,0.00
2023-05-04T02:52:51.063Z,0.00
2023-05-04T02:53:51.243Z,0.00
2023-05-04T02:54:53.024Z,0.00
2023-05-04T02:55:51.417Z,0.00
2023-05-04T02:56:51.575Z,0.00
2023-05-04T02:57:51.749Z,0.00
2023-05-04T02:58:51.815Z,0.00
2023-05-04T02:59:51.969Z,0.00
2023-05-04T03:00:52.162Z,0.00
2023-05-04T03:01:52.268Z,0.00
2023-05-04T03:02:52.389Z,0.00
2023-05-04T03:03:52.508Z,0.00
2023-05-04T03:04:52.614Z,0.00
2023-05-04T03:05:52.790Z,0.00
2023-05-04T03:06:52.916Z,0.00
2023-05-04T03:07:53.242Z,0.00
2023-05-04T03:08:53.148Z,0.00
2023-05-04T03:09:53.277Z,0.00
2023-05-04T03:10:53.439Z,0.00
2023-05-04T03:11:53.531Z,0.00
2023-05-04T03:12:53.788Z,0.00
2023-05-04T03:13:53.845Z,0.00
2023-05-04T03:14:53.904Z,0.00
2023-05-04T03:15:54.106Z,0.00
2023-05-04T03:16:54.251Z,0.00
2023-05-04T03:17:54.341Z,0.00
2023-05-04T03:19:15.391Z,0.00
2023-05-04T03:19:54.529Z,0.00
2023-05-04T03:20:55.034Z,0.00
2023-05-04T03:21:54.755Z,0.00
2023-05-04T03:22:54.865Z,0.00
2023-05-04T03:23:55.007Z,0.00
2023-05-04T03:24:55.123Z,4.00
2023-05-04T03:25:55.297Z,0.00
2023-05-04T03:26:55.392Z,4.00
2023-05-04T03:27:55.855Z,4.00
2023-05-04T03:28:55.607Z,4.00
2023-05-04T03:29:55.724Z,4.00
2023-05-04T03:30:55.824Z,4.00
2023-05-04T03:31:56.002Z,4.00
2023-05-04T03:32:56.102Z,0.00
2023-05-04T03:33:56.180Z,0.00
2023-05-04T03:34:56.303Z,4.00
2023-05-04T03:35:56.422Z,4.00
2023-05-04T03:36:56.599Z,4.00
2023-05-04T03:37:56.688Z,4.00
2023-05-04T03:38:56.820Z,8.00
2023-05-04T03:39:56.963Z,4.00
2023-05-04T03:40:57.032Z,8.00
2023-05-04T03:41:57.212Z,4.00
2023-05-04T03:42:57.365Z,8.00
2023-05-04T03:43:57.423Z,12.00
2023-05-04T03:44:57.560Z,12.00
2023-05-04T03:45:57.701Z,12.00
2023-05-04T03:46:57.763Z,12.00
2023-05-04T03:47:58.016Z,12.00
2023-05-04T03:48:58.000Z,16.00
2023-05-04T03:49:58.150Z,20.00
2023-05-04T03:50:58.359Z,20.00
2023-05-04T03:51:58.442Z,24.00
2023-05-04T03:52:58.594Z,28.00
2023-05-04T03:53:58.689Z,32.00
2023-05-04T03:54:58.858Z,36.00
2023-05-04T03:55:59.000Z,40.00
2023-05-04T03:56:59.079Z,44.00
2023-05-04T03:58:00.207Z,48.00
2023-05-04T03:58:59.400Z,52.00
2023-05-04T03:59:59.491Z,60.00
2023-05-04T04:00:59.644Z,64.00
2023-05-04T04:01:59.820Z,72.00
2023-05-04T04:03:00.069Z,76.00
2023-05-04T04:04:00.138Z,84.00
2023-05-04T04:05:00.197Z,88.00
2023-05-04T04:06:00.269Z,100.00
2023-05-04T04:07:00.357Z,108.00
2023-05-04T04:08:00.498Z,116.00
2023-05-04T04:09:00.685Z,124.00
2023-05-04T04:10:00.807Z,132.00
2023-05-04T04:11:00.947Z,148.00
2023-05-04T04:12:01.157Z,164.00
2023-05-04T04:13:01.333Z,176.00
2023-05-04T04:14:01.372Z,188.00
2023-05-04T04:15:01.481Z,204.00
2023-05-04T04:16:01.634Z,224.00
2023-05-04T04:17:01.739Z,248.00
2023-05-04T04:18:01.972Z,280.00
2023-05-04T04:19:01.966Z,308.00
2023-05-04T04:20:02.280Z,328.00
2023-05-04T04:21:02.256Z,380.00
2023-05-04T04:22:02.319Z,416.00
2023-05-04T04:23:02.460Z,448.00
2023-05-04T04:24:02.601Z,480.00
2023-05-04T04:25:02.775Z,528.00
2023-05-04T04:26:02.858Z,544.00
2023-05-04T04:27:02.989Z,540.00
2023-05-04T04:28:03.216Z,628.00
2023-05-04T04:29:03.253Z,656.00
2023-05-04T04:30:03.736Z,776.00
2023-05-04T04:31:03.582Z,724.00
2023-05-04T04:32:03.690Z,852.00
2023-05-04T04:33:03.925Z,840.00
2023-05-04T04:34:03.934Z,904.00
2023-05-04T04:35:04.074Z,932.00
2023-05-04T04:36:04.210Z,960.00
2023-05-04T04:37:04.383Z,1044.00
2023-05-04T04:38:04.510Z,1080.00
2023-05-04T04:39:04.601Z,1164.00
2023-05-04T04:40:04.902Z,1140.00
2023-05-04T04:41:05.097Z,1240.00
2023-05-04T04:42:05.031Z,1320.00
2023-05-04T04:43:05.184Z,1272.00
2023-05-04T04:44:05.259Z,1320.00
2023-05-04T04:45:05.376Z,1360.00
2023-05-04T04:46:05.519Z,1480.00
2023-05-04T04:47:05.694Z,1472.00
2023-05-04T04:48:05.910Z,1476.00
2023-05-04T04:49:06.483Z,1584.00
2023-05-04T04:50:06.213Z,1712.00
2023-05-04T04:51:06.268Z,1528.00
2023-05-04T04:52:06.364Z,1640.00
2023-05-04T04:53:09.311Z,1752.00
2023-05-04T04:54:06.550Z,1716.00
2023-05-04T04:55:06.644Z,1712.00
2023-05-04T04:56:06.766Z,1784.00
2023-05-04T04:57:06.906Z,1644.00
2023-05-04T04:58:07.003Z,1712.00
2023-05-04T04:59:07.203Z,1828.00
2023-05-04T05:00:07.312Z,1888.00
2023-05-04T05:01:07.449Z,2024.00
2023-05-04T05:02:07.469Z,2172.00
2023-05-04T05:03:07.667Z,2216.00
2023-05-04T05:04:07.793Z,2348.00
2023-05-04T05:05:08.046Z,2232.00
2023-05-04T05:06:08.023Z,2252.00
2023-05-04T05:07:08.160Z,2264.00
2023-05-04T05:08:08.298Z,2404.00
2023-05-04T05:09:08.478Z,2452.00
2023-05-04T05:10:08.760Z,2252.00
2023-05-04T05:11:08.748Z,2296.00
2023-05-04T05:12:08.922Z,2408.00
2023-05-04T05:13:09.081Z,2720.00
2023-05-04T05:14:09.163Z,2716.00
2023-05-04T05:15:09.320Z,2544.00
2023-05-04T05:16:09.428Z,2480.00
2023-05-04T05:17:09.628Z,2544.00
2023-05-04T05:18:09.709Z,2708.00
2023-05-04T05:19:09.808Z,2908.00
2023-05-04T05:20:09.986Z,2832.00
2023-05-04T05:21:10.075Z,2680.00
2023-05-04T05:22:10.210Z,2800.00
2023-05-04T05:23:10.299Z,2864.00
2023-05-04T05:24:10.460Z,3016.00
2023-05-04T05:25:10.571Z,2988.00
2023-05-04T05:26:10.708Z,3200.00
2023-05-04T05:27:10.830Z,3292.00
2023-05-04T05:28:10.946Z,3408.00
2023-05-04T05:29:11.053Z,3472.00
2023-05-04T05:30:11.215Z,3612.00
2023-05-04T05:31:11.360Z,3608.00
2023-05-04T05:32:11.454Z,3616.00
2023-05-04T05:33:11.641Z,3584.00
2023-05-04T05:34:11.701Z,3628.00
2023-05-04T05:35:11.834Z,3956.00
2023-05-04T05:36:11.976Z,3924.00
2023-05-04T05:37:12.193Z,3924.00
2023-05-04T05:38:12.254Z,3928.00
2023-05-04T05:39:12.365Z,4072.00
2023-05-04T05:40:12.457Z,4196.00
2023-05-04T05:41:12.567Z,4220.00
2023-05-04T05:42:12.773Z,4060.00
2023-05-04T05:43:12.828Z,4056.00
2023-05-04T05:44:13.229Z,4136.00
2023-05-04T05:45:13.089Z,4280.00
2023-05-04T05:46:13.336Z,4184.00
2023-05-04T05:47:13.454Z,4268.00
2023-05-04T05:48:13.492Z,4344.00
2023-05-04T05:49:13.629Z,4452.00
2023-05-04T05:50:13.771Z,4632.00
2023-05-04T05:51:14.029Z,4872.00
2023-05-04T05:52:14.065Z,4804.00
2023-05-04T05:53:14.187Z,5092.00
2023-05-04T05:54:14.306Z,5060.00
2023-05-04T05:55:14.396Z,5040.00
2023-05-04T05:56:14.590Z,5092.00
2023-05-04T05:57:14.673Z,5068.00
2023-05-04T05:58:14.846Z,4816.00
2023-05-04T05:59:14.948Z,4784.00
2023-05-04T06:00:15.142Z,4720.00
2023-05-04T06:01:15.230Z,4680.00
2023-05-04T06:02:15.510Z,4692.00
2023-05-04T06:03:15.597Z,4696.00
2023-05-04T06:04:15.677Z,4848.00
2023-05-04T06:05:15.690Z,4876.00
2023-05-04T06:06:15.872Z,4932.00
2023-05-04T06:07:16.008Z,5308.00
2023-05-04T06:08:16.176Z,5264.00
2023-05-04T06:09:16.243Z,5284.00
2023-05-04T06:10:16.386Z,5440.00
2023-05-04T06:11:16.528Z,5552.00
2023-05-04T06:12:16.678Z,5212.00
2023-05-04T06:13:16.918Z,5416.00
2023-05-04T06:14:16.893Z,5320.00
2023-05-04T06:15:17.007Z,5380.00
2023-05-04T06:16:17.144Z,5356.00
2023-05-04T06:17:17.233Z,5644.00
2023-05-04T06:18:17.409Z,5412.00
2023-05-04T06:19:17.611Z,5120.00
2023-05-04T06:20:17.645Z,5668.00
2023-05-04T06:21:17.790Z,5960.00
2023-05-04T06:22:17.895Z,6152.00
2023-05-04T06:23:18.013Z,6152.00
2023-05-04T06:24:18.214Z,6424.00
2023-05-04T06:25:18.311Z,6400.00
2023-05-04T06:26:18.458Z,6428.00
2023-05-04T06:27:18.527Z,6320.00
2023-05-04T06:28:18.659Z,6544.00
2023-05-04T06:29:18.797Z,6280.00
2023-05-04T06:30:18.940Z,6300.00
2023-05-04T06:31:19.118Z,6472.00
2023-05-04T06:32:19.146Z,6528.00
2023-05-04T06:33:19.262Z,6556.00
2023-05-04T06:34:19.426Z,6672.00
2023-05-04T06:35:19.488Z,7396.00
2023-05-04T06:36:19.599Z,7592.00
2023-05-04T06:37:19.706Z,7004.00
2023-05-04T06:38:19.800Z,6876.00
2023-05-04T06:39:19.949Z,8112.00
2023-05-04T06:40:20.122Z,7920.00
2023-05-04T06:41:20.165Z,8176.00
2023-05-04T06:42:20.309Z,7784.00
2023-05-04T06:43:20.486Z,8096.00
2023-05-04T06:44:20.564Z,8136.00
2023-05-04T06:45:20.694Z,8140.00
2023-05-04T06:46:20.911Z,8132.00
2023-05-04T06:47:20.921Z,8384.00
2023-05-04T06:48:21.040Z,8444.00
2023-05-04T06:49:21.176Z,8416.00
2023-05-04T06:50:21.348Z,8432.00
2023-05-04T06:51:21.516Z,8808.00
2023-05-04T06:52:21.527Z,9008.00
2023-05-04T06:53:21.670Z,9236.00
2023-05-04T06:54:21.808Z,9216.00
2023-05-04T06:55:21.906Z,9200.00
2023-05-04T06:56:22.026Z,9120.00
2023-05-04T06:57:22.163Z,9004.00
2023-05-04T06:58:22.281Z,9056.00
2023-05-04T06:59:22.388Z,8824.00
2023-05-04T07:00:22.475Z,8876.00
2023-05-04T07:01:22.695Z,8852.00
2023-05-04T07:02:22.997Z,8572.00
2023-05-04T07:03:23.051Z,8480.00
2023-05-04T07:04:23.113Z,8768.00
2023-05-04T07:05:23.146Z,8824.00
2023-05-04T07:06:23.318Z,8600.00
2023-05-04T07:07:23.456Z,8640.00
2023-05-04T07:08:23.584Z,8556.00
2023-05-04T07:09:23.690Z,8476.00
2023-05-04T07:10:23.883Z,8836.00
2023-05-04T07:11:24.096Z,8892.00
2023-05-04T07:12:24.055Z,9060.00
2023-05-04T07:13:24.180Z,9508.00
2023-05-04T07:14:24.271Z,9464.00
2023-05-04T07:15:24.418Z,9880.00
2023-05-04T07:16:24.692Z,9900.00
2023-05-04T07:17:24.793Z,10044.00
2023-05-04T07:18:24.823Z,9996.00
2023-05-04T07:19:24.988Z,9892.00
2023-05-04T07:20:26.109Z,9832.00
2023-05-04T07:21:28.989Z,10116.00
2023-05-04T07:22:25.313Z,10372.00
2023-05-04T07:23:25.401Z,10468.00
2023-05-04T07:24:25.545Z,11180.00
2023-05-04T07:25:25.648Z,11640.00
2023-05-04T07:26:25.801Z,11004.00
2023-05-04T07:27:25.926Z,12496.00
2023-05-04T07:28:26.040Z,12688.00
2023-05-04T07:29:26.136Z,12556.00
2023-05-04T07:30:26.341Z,12516.00
2023-05-04T07:31:28.194Z,12696.00
2023-05-04T07:32:26.590Z,12188.00
2023-05-04T07:33:26.746Z,12304.00
2023-05-04T07:34:37.885Z,12364.00
2023-05-04T07:35:27.904Z,12368.00
2023-05-04T07:36:27.082Z,12804.00
2023-05-04T07:37:27.167Z,13596.00
2023-05-04T07:38:27.311Z,13684.00
2023-05-04T07:39:27.431Z,13688.00
2023-05-04T07:40:27.526Z,13880.00
2023-05-04T07:41:27.669Z,13284.00
2023-05-04T07:42:27.979Z,13952.00
2023-05-04T07:43:27.858Z,12696.00
2023-05-04T07:44:27.992Z,14196.00
2023-05-04T07:45:28.148Z,13120.00
2023-05-04T07:46:28.311Z,13248.00
2023-05-04T07:47:28.479Z,12684.00
2023-05-04T07:48:28.532Z,13872.00
2023-05-04T07:49:28.674Z,14592.00
2023-05-04T07:50:28.809Z,16608.00
2023-05-04T07:51:28.952Z,16384.00
2023-05-04T07:52:29.097Z,18048.00
2023-05-04T07:53:29.254Z,20480.00
2023-05-04T07:54:29.256Z,22304.00
2023-05-04T07:55:29.351Z,27456.00
2023-05-04T07:56:29.488Z,35584.00
2023-05-04T07:57:29.654Z,35168.00
2023-05-04T07:58:29.751Z,36992.00
2023-05-04T07:59:29.881Z,43200.00
2023-05-04T08:00:29.985Z,42944.00
2023-05-04T08:01:30.075Z,42624.00
2023-05-04T08:02:30.321Z,47200.00
2023-05-04T08:03:30.400Z,52896.00
2023-05-04T08:04:30.493Z,56928.00
2023-05-04T08:05:30.616Z,55456.00
2023-05-04T08:06:30.745Z,71200.00
2023-05-04T08:07:30.872Z,77344.00
2023-05-04T08:08:30.993Z,80864.00
2023-05-04T08:09:31.141Z,93376.00
2023-05-04T08:10:31.212Z,99232.00
2023-05-04T08:11:31.436Z,102304.00
2023-05-04T08:12:31.488Z,114080.00
2023-05-04T08:13:31.654Z,119904.00
2023-05-04T08:14:31.760Z,130496.00
2023-05-04T08:15:31.880Z,147456.00
2023-05-04T08:16:32.084Z,152576.00
2023-05-04T08:17:32.363Z,146816.00
2023-05-04T08:18:32.268Z,130592.00
2023-05-04T08:19:32.370Z,124096.00
2023-05-04T08:20:32.496Z,116384.00
2023-05-04T08:21:32.668Z,116160.00
2023-05-04T08:22:32.780Z,113696.00
2023-05-04T08:23:32.954Z,107392.00
2023-05-04T08:24:33.058Z,100512.00
2023-05-04T08:25:33.201Z,99648.00
2023-05-04T08:26:33.363Z,93312.00
2023-05-04T08:27:33.662Z,88672.00
2023-05-04T08:28:33.517Z,85312.00
2023-05-04T08:29:33.653Z,79040.00
2023-05-04T08:30:33.752Z,79904.00
2023-05-04T08:31:34.005Z,73696.00
2023-05-04T08:32:34.034Z,74720.00
2023-05-04T08:33:34.093Z,70656.00
2023-05-04T08:34:34.199Z,67168.00
2023-05-04T08:35:34.314Z,65216.00
2023-05-04T08:36:34.406Z,65184.00
2023-05-04T08:37:34.532Z,66624.00
2023-05-04T08:38:34.610Z,57856.00
2023-05-04T08:39:34.786Z,54144.00
2023-05-04T08:40:34.894Z,53280.00
2023-05-04T08:41:35.036Z,57984.00
2023-05-04T08:42:35.155Z,64768.00
2023-05-04T08:43:35.335Z,57536.00
2023-05-04T08:44:35.414Z,54688.00
2023-05-04T08:45:35.671Z,53312.00
2023-05-04T08:46:35.633Z,50592.00
2023-05-04T08:47:35.776Z,46336.00
2023-05-04T08:48:35.934Z,48288.00
2023-05-04T08:49:36.048Z,46560.00
2023-05-04T08:50:36.195Z,44736.00
2023-05-04T08:51:36.355Z,44832.00
2023-05-04T08:52:36.424Z,46432.00
2023-05-04T08:53:36.537Z,47264.00
2023-05-04T08:54:36.696Z,53408.00
2023-05-04T08:55:36.722Z,54528.00
2023-05-04T08:56:36.911Z,54816.00
2023-05-04T08:57:37.002Z,53856.00
2023-05-04T08:58:37.105Z,50528.00
2023-05-04T08:59:37.222Z,50848.00
2023-05-04T09:00:37.412Z,44864.00
2023-05-04T09:01:37.579Z,44800.00
2023-05-04T09:02:37.649Z,46176.00
2023-05-04T09:03:37.853Z,50752.00
2023-05-04T09:04:37.861Z,52672.00
2023-05-04T09:05:38.041Z,54208.00
2023-05-04T09:06:38.146Z,53760.00
2023-05-04T09:07:38.397Z,52160.00
2023-05-04T09:08:38.338Z,52608.00
2023-05-04T09:09:38.543Z,51584.00
2023-05-04T09:10:38.791Z,48928.00
2023-05-04T09:11:38.813Z,48928.00
2023-05-04T09:12:39.099Z,48896.00
2023-05-04T09:13:39.353Z,48448.00
2023-05-04T09:14:39.177Z,52576.00
2023-05-04T09:15:39.560Z,53952.00
2023-05-04T09:16:39.479Z,54656.00
2023-05-04T09:17:50.884Z,53696.00
2023-05-04T09:18:40.721Z,49280.00
2023-05-04T09:19:40.258Z,49120.00
2023-05-04T09:20:40.007Z,48416.00
2023-05-04T09:21:40.101Z,48224.00
2023-05-04T09:22:40.254Z,48864.00
2023-05-04T09:23:40.388Z,49280.00
2023-05-04T09:24:40.458Z,52768.00
2023-05-04T09:25:40.571Z,55808.00
2023-05-04T09:26:40.701Z,58048.00
2023-05-04T09:27:40.844Z,58912.00
2023-05-04T09:28:40.928Z,58368.00
2023-05-04T09:29:41.122Z,61344.00
2023-05-04T09:30:41.343Z,61376.00
2023-05-04T09:31:41.498Z,62208.00
2023-05-04T09:32:41.499Z,62208.00
2023-05-04T09:33:41.634Z,62688.00
2023-05-04T09:34:41.669Z,63232.00
2023-05-04T09:35:41.798Z,71744.00
2023-05-04T09:36:41.990Z,71840.00
2023-05-04T09:37:42.138Z,69184.00
2023-05-04T09:38:42.170Z,66688.00
2023-05-04T09:39:42.325Z,60832.00
2023-05-04T09:40:42.488Z,57728.00
2023-05-04T09:41:42.552Z,54656.00
2023-05-04T09:42:42.649Z,51936.00
2023-05-04T09:43:42.844Z,49024.00
2023-05-04T09:44:42.919Z,50304.00
2023-05-04T09:45:43.051Z,46240.00
2023-05-04T09:46:43.243Z,46656.00
2023-05-04T09:47:43.334Z,40320.00
2023-05-04T09:48:43.456Z,38016.00
2023-05-04T09:49:43.560Z,36352.00
2023-05-04T09:50:43.672Z,35616.00
2023-05-04T09:51:43.917Z,36448.00
2023-05-04T09:52:43.922Z,36480.00
2023-05-04T09:53:44.080Z,36384.00
2023-05-04T09:54:44.197Z,36544.00
2023-05-04T09:55:44.279Z,35936.00
2023-05-04T09:56:44.441Z,36384.00
2023-05-04T09:57:44.528Z,34272.00
2023-05-04T09:58:44.606Z,34496.00
2023-05-04T09:59:44.776Z,35040.00
2023-05-04T10:00:44.905Z,34688.00
2023-05-04T10:01:45.095Z,34656.00
2023-05-04T10:02:45.329Z,33536.00
2023-05-04T10:03:45.317Z,34752.00
2023-05-04T10:04:45.442Z,33472.00
2023-05-04T10:05:45.562Z,35744.00
2023-05-04T10:06:45.691Z,34528.00
2023-05-04T10:07:45.867Z,33632.00
2023-05-04T10:08:45.949Z,34048.00
2023-05-04T10:09:46.063Z,36096.00
2023-05-04T10:10:46.236Z,33568.00
2023-05-04T10:11:46.399Z,38176.00
2023-05-04T10:12:46.481Z,39200.00
2023-05-04T10:13:46.638Z,34560.00
2023-05-04T10:14:48.162Z,33184.00
2023-05-04T10:15:46.835Z,36000.00
2023-05-04T10:16:46.963Z,40992.00
2023-05-04T10:17:47.160Z,42880.00
2023-05-04T10:18:47.364Z,46016.00
2023-05-04T10:19:47.368Z,49952.00
2023-05-04T10:20:47.476Z,52480.00
2023-05-04T10:21:47.575Z,63424.00
2023-05-04T10:22:47.708Z,67744.00
2023-05-04T10:23:48.015Z,71136.00
2023-05-04T10:24:48.137Z,70336.00
2023-05-04T10:25:48.076Z,67616.00
2023-05-04T10:26:48.171Z,65408.00
2023-05-04T10:27:48.276Z,61824.00
2023-05-04T10:28:48.407Z,59712.00
2023-05-04T10:29:48.558Z,62816.00
2023-05-04T10:30:48.665Z,65312.00
2023-05-04T10:31:48.833Z,69792.00
2023-05-04T10:32:48.971Z,72672.00
2023-05-04T10:33:49.102Z,75296.00
2023-05-04T10:34:49.235Z,75552.00
2023-05-04T10:35:49.326Z,76128.00
2023-05-04T10:36:49.443Z,76704.00
2023-05-04T10:37:49.629Z,74080.00
2023-05-04T10:38:49.702Z,68160.00
2023-05-04T10:39:49.901Z,59872.00
2023-05-04T10:40:49.982Z,56480.00
2023-05-04T10:41:50.095Z,49056.00
2023-05-04T10:42:50.218Z,42688.00
2023-05-04T10:43:50.368Z,44800.00
2023-05-04T10:44:50.525Z,38176.00
2023-05-04T10:45:50.654Z,42624.00
2023-05-04T10:46:50.711Z,46848.00
2023-05-04T10:47:50.914Z,41344.00
2023-05-04T10:48:51.002Z,42176.00
2023-05-04T10:49:51.017Z,40128.00
2023-05-04T10:50:51.221Z,35840.00
2023-05-04T10:51:51.383Z,41504.00
2023-05-04T10:52:51.455Z,43488.00
2023-05-04T10:53:51.611Z,45856.00
2023-05-04T10:54:51.732Z,43296.00
2023-05-04T10:55:51.803Z,43456.00
2023-05-04T10:56:51.938Z,43488.00
2023-05-04T10:57:52.050Z,41120.00
2023-05-04T10:58:52.152Z,41888.00
2023-05-04T10:59:52.290Z,43616.00
2023-05-04T11:00:52.417Z,43456.00
2023-05-04T11:01:52.653Z,41280.00
2023-05-04T11:02:52.802Z,43584.00
2023-05-04T11:03:53.040Z,41024.00
2023-05-04T11:04:53.118Z,42272.00
2023-05-04T11:05:53.094Z,45536.00
2023-05-04T11:06:53.181Z,39040.00
2023-05-04T11:07:53.571Z,37280.00
2023-05-04T11:08:53.441Z,40608.00
2023-05-04T11:09:53.487Z,41888.00
2023-05-04T11:10:53.623Z,44192.00
2023-05-04T11:11:53.802Z,44864.00
2023-05-04T11:12:53.927Z,37984.00
2023-05-04T11:13:54.011Z,35360.00
2023-05-04T11:14:54.134Z,41920.00
2023-05-04T11:15:54.223Z,44448.00
2023-05-04T11:16:54.348Z,43872.00
2023-05-04T11:17:54.512Z,43424.00
2023-05-04T11:18:54.543Z,45440.00
2023-05-04T11:19:54.654Z,43616.00
2023-05-04T11:20:54.766Z,41088.00
2023-05-04T11:21:54.885Z,44352.00
2023-05-04T11:22:55.075Z,44512.00
2023-05-04T11:23:55.119Z,43584.00
2023-05-04T11:24:56.356Z,43360.00
2023-05-04T11:25:55.347Z,45312.00
2023-05-04T11:26:55.531Z,41088.00
2023-05-04T11:27:55.623Z,44320.00
2023-05-04T11:28:55.720Z,46112.00
2023-05-04T11:29:55.860Z,46080.00
2023-05-04T11:30:56.266Z,46272.00
2023-05-04T11:31:56.357Z,43008.00
2023-05-04T11:32:56.327Z,33632.00
2023-05-04T11:33:56.467Z,35936.00
2023-05-04T11:34:56.575Z,42144.00
2023-05-04T11:35:56.690Z,25984.00
2023-05-04T11:36:56.836Z,23808.00
2023-05-04T11:37:57.008Z,19200.00
2023-05-04T11:38:57.036Z,20064.00
2023-05-04T11:39:57.179Z,19072.00
2023-05-04T11:40:57.319Z,19520.00
2023-05-04T11:41:57.488Z,14656.00
2023-05-04T11:42:57.608Z,19712.00
2023-05-04T11:43:57.715Z,23840.00
2023-05-04T11:44:57.792Z,20032.00
2023-05-04T11:45:57.917Z,21504.00
2023-05-04T11:46:58.044Z,21344.00
2023-05-04T11:47:58.165Z,34944.00
2023-05-04T11:48:58.262Z,41216.00
2023-05-04T11:49:58.509Z,21536.00
2023-05-04T11:50:58.588Z,12164.00
2023-05-04T11:51:58.845Z,26464.00
2023-05-04T11:52:58.920Z,11996.00
2023-05-04T11:53:58.957Z,10008.00
2023-05-04T11:54:59.095Z,9392.00
2023-05-04T11:55:59.235Z,11132.00
2023-05-04T11:56:59.414Z,11932.00
2023-05-04T11:57:59.589Z,14388.00
2023-05-04T11:58:59.803Z,9016.00
2023-05-04T11:59:59.799Z,10888.00
2023-05-04T12:00:59.969Z,19968.00
2023-05-04T12:02:00.036Z,20544.00
2023-05-04T12:03:00.356Z,21632.00
2023-05-04T12:04:00.612Z,12104.00
2023-05-04T12:05:00.428Z,9528.00
2023-05-04T12:06:00.739Z,8696.00
2023-05-04T12:07:01.771Z,15864.00
2023-05-04T12:08:00.833Z,9188.00
2023-05-04T12:09:00.940Z,15200.00
2023-05-04T12:10:01.064Z,5408.00
2023-05-04T12:11:01.213Z,8044.00
2023-05-04T12:12:01.367Z,12616.00
2023-05-04T12:13:01.476Z,14604.00
2023-05-04T12:14:01.594Z,8228.00
2023-05-04T12:15:01.724Z,7588.00
2023-05-04T12:16:01.915Z,7324.00
2023-05-04T12:17:01.897Z,9296.00
2023-05-04T12:18:03.185Z,8980.00
2023-05-04T12:19:02.180Z,17280.00
2023-05-04T12:20:02.324Z,12572.00
2023-05-04T12:21:04.556Z,15716.00